Time;durP1;ratioP1;P1;durP2;ratioP2;P2;SDS_P1;SDS_P2;PMS_P1;PMS_P2;Temp;Humidity;BMP_temperature;BMP_pressure;BME280_temperature;BME280_humidity;BME280_pressure;Samples;Min_cycle;Max_cycle;Signal;HPM_P1;HPM_P2
2022/02/11 00:01:20;;;;;;;8.98;3.28;;;;;;;21.43;36.77;101842.25;5010607;28;20041;-66
2022/02/11 00:09:04;;;;;;;6.25;3.50;;;;;;;21.31;37.00;101841.75;5011115;28;20179;-66
2022/02/11 00:11:35;;;;;;;7.13;3.47;;;;;;;21.29;36.78;101843.75;5012108;28;20041;-66
2022/02/11 00:14:03;;;;;;;9.23;3.38;;;;;;;21.23;37.06;101839.06;5016147;28;20552;-66
2022/02/11 00:16:30;;;;;;;8.27;3.15;;;;;;;21.23;37.14;101841.72;5020282;28;20030;-66
2022/02/11 00:18:59;;;;;;;5.75;2.80;;;;;;;21.21;36.89;101838.41;5011541;28;20048;-66
2022/02/11 00:21:26;;;;;;;6.80;2.75;;;;;;;21.16;37.04;101835.41;4968011;28;20069;-66
2022/02/11 00:23:52;;;;;;;8.15;3.53;;;;;;;21.10;37.19;101839.56;5013605;28;20076;-66
2022/02/11 00:26:18;;;;;;;7.95;3.05;;;;;;;21.08;37.18;101830.94;5015976;28;20482;-66
2022/02/11 00:29:45;;;;;;;8.30;3.38;;;;;;;21.03;37.14;101833.25;4980615;28;20072;-67
2022/02/11 00:34:55;;;;;;;6.03;2.88;;;;;;;20.98;37.11;101817.00;5011662;28;20061;-68
2022/02/11 00:37:22;;;;;;;6.50;2.78;;;;;;;20.96;37.30;101826.13;4979275;28;20151;-67
2022/02/11 01:04:00;;;;;;;8.90;2.85;;;;;;;20.75;37.32;101773.63;4982365;28;20080;-67
2022/02/11 01:06:29;;;;;;;8.23;3.35;;;;;;;20.63;37.39;101753.75;5014465;28;20112;-67
2022/02/11 01:08:55;;;;;;;7.20;3.00;;;;;;;20.65;37.46;101754.44;4980628;28;25930;-67
2022/02/11 01:11:29;;;;;;;7.20;3.03;;;;;;;20.60;37.35;101749.63;4999894;28;20117;-67
2022/02/11 01:13:55;;;;;;;5.18;2.92;;;;;;;20.64;37.45;101747.47;5010443;28;20101;-67
2022/02/11 01:16:27;;;;;;;6.00;2.80;;;;;;;20.63;37.40;101748.47;4981097;28;20048;-67
2022/02/11 01:19:03;;;;;;;8.02;2.85;;;;;;;20.52;37.60;101736.38;5010776;28;20056;-68
2022/02/11 01:21:38;;;;;;;5.43;2.78;;;;;;;20.54;37.45;101736.22;4982946;28;20487;-67
2022/02/11 01:30:09;;;;;;;5.20;2.35;;;;;;;20.53;37.37;101727.44;5001457;28;20061;-67
2022/02/11 01:35:13;;;;;;;5.82;2.60;;;;;;;20.44;37.55;101717.81;4991303;28;20049;-67
2022/02/11 01:38:38;;;;;;;7.70;2.50;;;;;;;20.46;37.56;101724.59;4988753;28;20038;-67
2022/02/11 01:43:46;;;;;;;5.05;2.75;;;;;;;20.39;37.66;101714.81;4985870;28;20880;-67
2022/02/11 01:54:02;;;;;;;5.55;2.53;;;;;;;20.34;37.69;101696.78;5014429;28;20615;-67
2022/02/11 01:56:42;;;;;;;5.00;2.63;;;;;;;20.32;37.64;101676.78;4981811;28;20405;-67
2022/02/11 02:15:57;;;;;;;8.75;3.22;;;;;;;20.22;37.52;101682.22;5017789;28;20029;-67
2022/02/11 02:58:17;;;;;;;6.05;2.33;;;;;;;20.03;37.96;101603.16;5027767;28;20052;-67
2022/02/11 03:17:38;;;;;;;5.20;2.15;;;;;;;19.94;38.04;101585.66;5012712;28;20171;-68
2022/02/11 04:22:40;;;;;;;4.63;2.20;;;;;;;19.76;37.98;101601.63;5012047;28;20084;-68
2022/02/11 04:55:02;;;;;;;5.80;2.05;;;;;;;19.67;37.94;101671.28;5018710;28;20094;-67
2022/02/11 05:00:14;;;;;;;6.60;2.00;;;;;;;19.64;38.04;101674.22;5013664;28;20429;-67
2022/02/11 05:02:45;;;;;;;6.32;2.13;;;;;;;19.70;37.82;101657.72;4956018;28;21604;-67
2022/02/11 05:05:12;;;;;;;7.18;2.33;;;;;;;19.61;37.92;101668.28;5017383;28;20117;-67
2022/02/11 05:07:38;;;;;;;9.60;2.03;;;;;;;19.65;37.92;101687.28;5004479;28;20049;-68
2022/02/11 05:10:07;;;;;;;6.05;1.77;;;;;;;19.60;37.78;101668.44;5014269;28;20037;-67
2022/02/11 05:12:34;;;;;;;6.10;2.00;;;;;;;19.64;37.84;101690.91;5027751;28;20136;-66
2022/02/11 05:15:00;;;;;;;6.70;2.08;;;;;;;19.60;37.94;101687.75;5010979;28;20037;-67
2022/02/11 05:17:25;;;;;;;8.20;2.60;;;;;;;19.59;37.79;101690.56;5000457;28;20049;-67
2022/02/11 05:19:51;;;;;;;7.78;1.92;;;;;;;19.58;37.98;101696.84;5013491;28;20108;-67
2022/02/11 05:22:16;;;;;;;6.40;1.67;;;;;;;19.55;37.98;101702.41;5015260;28;20056;-67
2022/02/11 05:24:42;;;;;;;10.77;2.08;;;;;;;19.57;37.98;101698.66;5011769;28;20026;-67
2022/02/11 05:27:07;;;;;;;7.50;1.90;;;;;;;19.56;37.90;101691.69;5013150;28;20072;-67
2022/02/11 05:29:33;;;;;;;9.10;2.55;;;;;;;19.58;37.98;101708.22;5015285;28;20045;-67
2022/02/11 05:31:58;;;;;;;5.90;1.77;;;;;;;19.54;37.93;101711.31;5014286;28;20065;-67
2022/02/11 05:34:24;;;;;;;5.30;1.85;;;;;;;19.57;37.98;101719.78;4973907;28;20099;-67
2022/02/11 05:36:49;;;;;;;5.70;1.95;;;;;;;19.53;38.15;101725.47;5010701;28;20061;-67
2022/02/11 05:39:15;;;;;;;5.30;1.67;;;;;;;19.53;38.07;101718.38;4995123;28;20041;-67
2022/02/11 05:41:40;;;;;;;6.40;2.15;;;;;;;19.56;38.11;101726.03;5014583;28;20495;-67
2022/02/11 05:44:06;;;;;;;8.00;2.08;;;;;;;19.49;38.08;101726.78;4998829;28;20041;-67
2022/02/11 05:46:31;;;;;;;5.25;1.95;;;;;;;19.44;38.07;101727.25;5013631;28;20048;-67
2022/02/11 05:48:59;;;;;;;4.57;1.75;;;;;;;19.55;37.84;101739.41;4977078;28;20769;-67
2022/02/11 05:51:24;;;;;;;5.22;1.90;;;;;;;19.58;37.91;101720.63;5002647;28;20501;-67
2022/02/11 05:53:50;;;;;;;10.02;2.08;;;;;;;19.86;37.76;101756.44;5012035;28;20042;-68
2022/02/11 05:56:15;;;;;;;6.88;2.08;;;;;;;20.02;37.77;101763.63;4981896;28;20099;-67
2022/02/11 05:58:41;;;;;;;6.22;1.98;;;;;;;20.49;37.12;101774.56;5018329;28;20052;-69
2022/02/11 06:01:06;;;;;;;7.45;1.95;;;;;;;20.86;36.61;101770.69;4982565;28;20060;-67
2022/02/11 06:03:32;;;;;;;7.88;2.35;;;;;;;21.21;35.94;101780.13;5009627;28;20049;-67
2022/02/11 06:05:58;;;;;;;6.53;1.95;;;;;;;21.24;35.86;101773.69;4978172;28;20709;-67
2022/02/11 06:08:25;;;;;;;9.98;2.13;;;;;;;21.28;35.84;101805.00;5017956;28;20125;-67
2022/02/11 06:10:50;;;;;;;10.43;2.10;;;;;;;21.17;36.17;101801.81;4981438;28;20184;-67
2022/02/11 06:13:16;;;;;;;6.70;2.42;;;;;;;21.05;36.33;101811.91;5019716;28;20041;-67
2022/02/11 06:15:43;;;;;;;5.25;1.70;;;;;;;20.98;36.38;101800.31;4992768;28;20034;-67
2022/02/11 06:18:09;;;;;;;5.22;1.92;;;;;;;20.84;36.45;101820.31;5017487;28;20526;-66
2022/02/11 06:20:34;;;;;;;7.75;2.38;;;;;;;20.73;36.82;101831.19;4989347;28;20041;-67
2022/02/11 06:23:01;;;;;;;5.78;1.92;;;;;;;20.79;36.63;101834.03;4998310;28;20405;-67
2022/02/11 06:25:27;;;;;;;10.35;2.70;;;;;;;20.77;36.62;101851.06;5032434;28;20056;-67
2022/02/11 06:27:52;;;;;;;9.23;2.55;;;;;;;20.92;36.43;101856.56;4983715;28;20195;-67
2022/02/11 06:30:18;;;;;;;6.43;1.90;;;;;;;20.89;36.58;101862.19;5023736;28;21037;-67
2022/02/11 06:32:44;;;;;;;8.45;2.63;;;;;;;21.06;36.45;101866.53;4983573;28;22078;-67
2022/02/11 06:35:13;;;;;;;6.85;2.20;;;;;;;21.27;35.76;101874.88;5019510;28;20111;-67
2022/02/11 06:37:45;;;;;;;7.53;1.92;;;;;;;21.53;35.55;101898.56;4995026;28;20038;-67
2022/02/11 06:40:15;;;;;;;3.88;1.77;;;;;;;21.58;35.22;101890.97;5004371;28;20033;-67
2022/02/11 06:42:41;;;;;;;9.13;2.58;;;;;;;21.51;35.63;101903.19;5030211;28;20119;-67
2022/02/11 06:45:07;;;;;;;7.13;1.80;;;;;;;21.41;35.53;101905.19;4982326;28;20394;-67
2022/02/11 06:47:33;;;;;;;5.28;1.77;;;;;;;21.41;35.79;101921.91;5014249;28;20255;-67
2022/02/11 06:49:58;;;;;;;6.78;1.80;;;;;;;21.30;35.69;101932.81;4981592;28;20663;-67
2022/02/11 06:52:24;;;;;;;10.55;2.47;;;;;;;21.30;35.77;101935.47;5018536;28;20048;-67
2022/02/11 06:54:50;;;;;;;10.38;2.42;;;;;;;21.22;35.81;101948.69;4980415;28;20434;-67
2022/02/11 06:57:15;;;;;;;7.60;2.15;;;;;;;21.27;35.80;101957.00;5016488;28;20034;-67
2022/02/11 06:59:41;;;;;;;5.32;1.77;;;;;;;21.32;35.57;101977.69;4992561;28;20048;-67
2022/02/11 07:02:15;;;;;;;11.50;2.65;;;;;;;21.25;35.82;101969.56;5018460;28;20044;-67
2022/02/11 07:04:40;;;;;;;6.05;1.90;;;;;;;21.34;35.60;101995.09;4982362;28;20037;-67
2022/02/11 07:07:06;;;;;;;4.85;2.10;;;;;;;21.26;35.64;102004.84;5017184;28;20040;-67
2022/02/11 07:09:31;;;;;;;9.60;2.10;;;;;;;21.23;35.85;102026.34;4995426;28;20037;-67
2022/02/11 07:11:57;;;;;;;10.93;2.45;;;;;;;21.24;35.78;102020.03;4991440;28;20038;-68
2022/02/11 07:14:22;;;;;;;16.00;2.42;;;;;;;21.18;35.89;102026.78;5018257;28;20088;-67
2022/02/11 07:16:48;;;;;;;5.00;1.65;;;;;;;21.11;35.69;102031.91;4979629;28;20870;-67
2022/02/11 07:19:13;;;;;;;10.57;2.20;;;;;;;21.16;35.83;102030.59;5012570;28;20053;-67
2022/02/11 07:21:41;;;;;;;10.65;2.20;;;;;;;21.18;35.65;102049.78;4980920;28;20087;-67
2022/02/11 07:24:07;;;;;;;7.53;1.90;;;;;;;21.17;35.75;102041.03;5013456;28;20148;-67
2022/02/11 07:26:33;;;;;;;6.07;1.98;;;;;;;21.20;35.70;102056.63;4980274;28;20053;-67
2022/02/11 07:28:58;;;;;;;7.75;2.10;;;;;;;21.15;35.65;102082.72;5005618;28;20048;-67
2022/02/11 07:31:24;;;;;;;7.50;2.03;;;;;;;21.21;35.65;102103.31;5013651;28;20388;-67
2022/02/11 07:33:49;;;;;;;3.78;1.45;;;;;;;21.34;35.30;102101.06;4982096;28;21326;-67
2022/02/11 07:36:15;;;;;;;6.57;1.95;;;;;;;21.41;35.15;102115.38;5016859;28;20053;-67
2022/02/11 07:38:40;;;;;;;8.32;1.75;;;;;;;21.39;35.20;102125.28;4977580;28;20045;-67
2022/02/11 07:41:06;;;;;;;8.45;2.22;;;;;;;21.34;35.19;102138.16;5021652;28;20033;-67
2022/02/11 07:43:31;;;;;;;6.40;2.55;;;;;;;21.27;35.55;102145.09;4965765;28;20449;-67
2022/02/11 07:45:57;;;;;;;9.48;2.33;;;;;;;21.22;35.26;102144.72;5016246;28;20037;-67
2022/02/11 07:48:23;;;;;;;8.15;2.53;;;;;;;21.22;35.56;102170.38;5007764;28;20033;-67
2022/02/11 07:50:51;;;;;;;7.30;2.40;;;;;;;21.17;35.65;102167.34;4988415;28;20045;-67
2022/02/11 07:53:18;;;;;;;8.15;1.90;;;;;;;21.05;35.58;102158.84;5013520;28;20038;-67
2022/02/11 07:55:44;;;;;;;10.85;2.58;;;;;;;21.03;35.55;102182.00;4986822;28;20087;-67
2022/02/11 07:58:10;;;;;;;9.40;2.47;;;;;;;20.97;35.86;102196.66;5009416;28;20044;-67
2022/02/11 08:00:35;;;;;;;8.25;2.05;;;;;;;20.93;35.99;102226.28;4969262;28;20530;-67
2022/02/11 08:03:01;;;;;;;6.88;2.08;;;;;;;20.94;35.86;102212.88;5023434;28;20045;-67
2022/02/11 08:05:27;;;;;;;5.30;2.08;;;;;;;20.95;35.80;102233.06;4984015;28;20045;-67
2022/02/11 08:07:52;;;;;;;10.98;2.10;;;;;;;21.03;35.57;102250.88;5010003;28;20040;-67
2022/02/11 08:10:18;;;;;;;6.18;2.00;;;;;;;21.04;35.64;102261.31;4983059;28;20120;-68
2022/02/11 08:12:43;;;;;;;8.73;2.30;;;;;;;21.14;35.28;102263.84;5012015;28;20140;-66
2022/02/11 08:15:09;;;;;;;4.47;1.70;;;;;;;21.28;35.31;102263.31;4981642;28;20076;-67
2022/02/11 08:17:36;;;;;;;7.65;2.13;;;;;;;21.24;35.27;102271.72;5011118;28;20045;-66
2022/02/11 08:20:03;;;;;;;10.25;2.22;;;;;;;21.17;35.32;102291.84;5010558;28;20054;-66
2022/02/11 08:22:28;;;;;;;8.85;1.65;;;;;;;21.20;35.46;102292.38;4980042;28;20033;-67
2022/02/11 08:24:54;;;;;;;8.48;1.60;;;;;;;21.23;35.40;102307.97;5010889;28;20095;-66
2022/02/11 08:27:19;;;;;;;6.32;2.63;;;;;;;21.33;34.98;102310.56;4993274;28;20057;-65
2022/02/11 08:29:46;;;;;;;3.78;1.58;;;;;;;21.33;35.00;102315.84;5011480;28;20384;-65
2022/02/11 08:32:12;;;;;;;7.18;2.03;;;;;;;21.31;35.09;102323.94;4966544;28;20576;-66
2022/02/11 08:34:39;;;;;;;5.82;2.08;;;;;;;21.30;35.21;102338.19;5007303;28;20040;-66
2022/02/11 08:37:05;;;;;;;9.65;1.70;;;;;;;21.25;35.23;102358.19;4979389;28;20037;-66
2022/02/11 08:39:34;;;;;;;9.57;1.67;;;;;;;21.23;35.25;102350.38;5010072;28;20094;-66
2022/02/11 08:42:00;;;;;;;9.02;1.58;;;;;;;21.23;35.24;102376.03;4996163;28;20049;-66
2022/02/11 08:44:26;;;;;;;6.90;1.85;;;;;;;21.18;35.39;102383.56;5010307;28;20040;-65
2022/02/11 08:46:51;;;;;;;7.50;1.88;;;;;;;20.99;35.68;102372.13;4981170;28;21208;-66
2022/02/11 08:49:17;;;;;;;8.02;1.92;;;;;;;21.00;35.76;102413.53;4995282;28;20072;-66
2022/02/11 08:51:42;;;;;;;7.90;1.95;;;;;;;20.94;35.83;102419.44;5024874;28;20688;-65
2022/02/11 08:54:08;;;;;;;6.28;2.28;;;;;;;20.96;35.91;102425.41;4975772;28;20056;-66
2022/02/11 08:56:34;;;;;;;5.22;1.67;;;;;;;21.07;35.63;102433.16;5008922;28;20041;-66
2022/02/11 08:59:00;;;;;;;6.45;2.03;;;;;;;21.16;35.57;102433.22;4974865;28;20041;-65
2022/02/11 09:01:25;;;;;;;8.57;2.22;;;;;;;21.20;35.35;102438.09;5008194;28;20037;-65
2022/02/11 09:03:51;;;;;;;5.15;2.20;;;;;;;21.35;35.31;102449.00;4968336;28;20144;-66
2022/02/11 09:06:18;;;;;;;7.05;1.73;;;;;;;21.34;35.17;102458.78;5013139;28;20029;-65
2022/02/11 09:08:44;;;;;;;5.50;1.73;;;;;;;21.34;35.26;102476.50;4978950;28;20925;-66
2022/02/11 09:11:12;;;;;;;7.80;2.30;;;;;;;21.37;34.96;102474.41;5011978;28;20032;-66
2022/02/11 09:13:37;;;;;;;7.75;1.88;;;;;;;21.34;35.33;102487.09;4983873;28;20064;-65
2022/02/11 09:16:04;;;;;;;10.75;2.60;;;;;;;21.29;35.30;102503.44;5004486;28;20061;-66
2022/02/11 09:18:30;;;;;;;8.02;2.03;;;;;;;21.24;35.35;102513.66;5001455;28;20151;-65
2022/02/11 09:20:57;;;;;;;7.88;2.00;;;;;;;21.21;35.18;102516.59;4980993;28;20565;-66
2022/02/11 09:23:23;;;;;;;7.05;1.50;;;;;;;21.13;35.59;102532.38;5013033;28;20515;-72
2022/02/11 09:25:49;;;;;;;6.85;1.98;;;;;;;21.16;35.32;102540.03;4983164;28;20103;-69
2022/02/11 09:28:15;;;;;;;6.65;2.63;;;;;;;21.12;35.54;102547.44;5010962;28;20048;-68
2022/02/11 09:30:41;;;;;;;5.70;2.00;;;;;;;21.11;35.45;102526.38;4982065;28;20687;-68
2022/02/11 09:33:08;;;;;;;8.05;1.65;;;;;;;21.10;35.56;102546.75;5013049;28;20490;-67
2022/02/11 09:35:34;;;;;;;6.43;1.88;;;;;;;21.09;35.09;102546.91;4977770;28;20458;-69
2022/02/11 09:38:00;;;;;;;19.60;3.38;;;;;;;21.41;34.94;102557.09;4996489;28;20033;-70
2022/02/11 09:40:26;;;;;;;6.55;1.95;;;;;;;21.15;35.86;102561.38;4988347;28;20079;-66
2022/02/11 09:42:54;;;;;;;7.07;2.30;;;;;;;21.58;35.61;102572.19;4987112;28;20395;-76
2022/02/11 09:45:22;;;;;;;10.35;3.10;;;;;;;21.59;35.60;102580.97;5010606;28;20765;-69
2022/02/11 09:47:50;;;;;;;12.70;3.00;;;;;;;21.44;34.40;102587.75;4980162;28;20049;-72
2022/02/11 09:50:18;;;;;;;8.95;2.75;;;;;;;21.49;33.93;102596.09;5015820;28;20166;-71
2022/02/11 09:52:48;;;;;;;12.07;2.38;;;;;;;21.35;33.82;102610.66;4967978;28;20030;-74
2022/02/11 09:55:32;;;;;;;11.15;2.70;;;;;;;21.27;34.35;102608.75;4986970;28;20068;-68
2022/02/11 09:58:17;;;;;;;20.95;3.10;;;;;;;21.09;35.26;102623.72;4971516;28;20818;-68
2022/02/11 10:00:48;;;;;;;13.23;2.53;;;;;;;21.01;35.45;102632.41;5018102;28;20041;-69
2022/02/11 10:03:25;;;;;;;11.13;2.63;;;;;;;20.96;35.62;102639.09;4946151;28;20048;-69
2022/02/11 10:06:04;;;;;;;16.00;3.30;;;;;;;20.96;35.70;102653.16;5015946;28;20450;-69
2022/02/11 10:08:32;;;;;;;12.05;2.55;;;;;;;21.00;35.56;102659.00;4944395;28;20161;-69
2022/02/11 10:10:59;;;;;;;11.70;2.75;;;;;;;20.92;35.63;102659.72;5023765;28;20045;-69
2022/02/11 10:13:31;;;;;;;8.93;2.40;;;;;;;21.03;35.47;102674.63;4963811;28;20080;-69
2022/02/11 10:16:08;;;;;;;10.32;2.92;;;;;;;21.11;35.30;102683.53;5008853;28;20034;-69
2022/02/11 10:18:35;;;;;;;10.77;2.90;;;;;;;21.03;35.34;102703.75;4965289;28;20049;-69
2022/02/11 10:21:03;;;;;;;12.13;3.17;;;;;;;20.99;35.47;102708.47;5016381;28;20450;-69
2022/02/11 10:23:31;;;;;;;9.98;2.40;;;;;;;20.94;35.49;102728.44;4971514;28;20706;-68
2022/02/11 10:26:06;;;;;;;12.75;3.13;;;;;;;20.89;35.68;102733.34;4998846;28;20060;-68
2022/02/11 10:28:37;;;;;;;11.30;3.30;;;;;;;20.99;35.30;102744.72;4984523;28;20051;-69
2022/02/11 10:31:14;;;;;;;9.52;2.63;;;;;;;21.00;35.31;102741.94;4977672;28;20152;-68
2022/02/11 10:34:08;;;;;;;8.85;2.00;;;;;;;21.00;35.14;102752.53;5018151;28;20052;-68
2022/02/11 10:36:39;;;;;;;13.38;2.92;;;;;;;20.98;35.23;102765.09;4957791;28;20111;-68
2022/02/11 10:39:12;;;;;;;11.80;2.38;;;;;;;20.98;35.17;102758.94;5029446;28;20037;-68
2022/02/11 10:41:49;;;;;;;10.98;2.42;;;;;;;21.13;34.77;102778.75;4943874;28;20056;-68
2022/02/11 10:44:17;;;;;;;10.10;2.65;;;;;;;21.15;34.78;102784.72;5015833;28;20048;-69
2022/02/11 10:46:49;;;;;;;11.93;2.55;;;;;;;21.03;35.00;102785.88;4943411;28;20044;-68
2022/02/11 10:49:16;;;;;;;10.20;3.13;;;;;;;21.05;34.90;102802.47;5014243;28;20413;-68
2022/02/11 10:51:47;;;;;;;11.45;3.03;;;;;;;21.03;34.87;102799.13;4955957;28;20033;-68
2022/02/11 10:54:26;;;;;;;6.32;2.45;;;;;;;21.07;34.79;102822.53;5016282;28;20036;-69
2022/02/11 10:56:57;;;;;;;10.00;2.55;;;;;;;21.09;34.64;102809.16;4941902;28;20690;-68
2022/02/11 10:59:32;;;;;;;10.88;2.55;;;;;;;21.13;34.64;102826.44;5014900;28;20514;-69
2022/02/11 11:01:59;;;;;;;7.97;2.15;;;;;;;20.99;34.84;102809.13;4968585;28;20041;-69
2022/02/11 11:04:26;;;;;;;9.55;2.30;;;;;;;21.07;34.79;102822.53;5013664;28;20125;-69
2022/02/11 11:06:53;;;;;;;12.38;2.83;;;;;;;21.07;34.35;102824.34;4981900;28;20644;-68
2022/02/11 11:09:20;;;;;;;7.40;2.10;;;;;;;21.05;34.67;102842.19;4988087;28;20033;-68
2022/02/11 11:11:47;;;;;;;10.10;3.15;;;;;;;21.00;34.83;102847.88;4988164;28;20037;-69
2022/02/11 11:14:15;;;;;;;9.63;2.65;;;;;;;21.02;34.72;102850.44;4989925;28;20915;-69
2022/02/11 11:16:42;;;;;;;10.25;3.03;;;;;;;21.02;34.68;102853.91;5017377;28;20118;-69
2022/02/11 11:19:07;;;;;;;13.07;2.60;;;;;;;20.95;34.69;102857.22;4945001;28;20057;-69
2022/02/11 11:22:11;;;;;;;8.23;2.33;;;;;;;21.04;34.55;102859.06;5018722;28;20041;-69
2022/02/11 11:24:52;;;;;;;12.93;3.35;;;;;;;20.99;34.62;102864.75;4955275;28;20052;-68
2022/02/11 11:27:53;;;;;;;11.18;2.85;;;;;;;20.99;34.58;102875.34;5013487;28;20220;-68
2022/02/11 11:30:19;;;;;;;10.20;2.33;;;;;;;20.99;34.69;102874.50;4987710;28;20037;-68
2022/02/11 11:33:11;;;;;;;17.27;3.38;;;;;;;20.96;34.63;102880.94;5019585;28;20037;-69
2022/02/11 11:35:40;;;;;;;7.88;2.78;;;;;;;21.00;34.62;102881.47;4950306;28;20790;-68
2022/02/11 11:38:11;;;;;;;10.90;2.78;;;;;;;21.04;34.31;102885.56;5003102;28;20049;-69
2022/02/11 11:40:36;;;;;;;11.02;2.20;;;;;;;20.99;34.55;102885.09;4988426;28;20258;-68
2022/02/11 11:43:15;;;;;;;9.25;2.50;;;;;;;20.97;34.58;102885.25;4985419;28;20029;-69
2022/02/11 11:45:43;;;;;;;5.70;2.00;;;;;;;20.98;34.49;102881.63;4972918;28;20100;-68
2022/02/11 11:48:16;;;;;;;11.50;2.70;;;;;;;20.97;34.58;102884.41;4986121;28;20025;-69
2022/02/11 11:50:45;;;;;;;9.73;2.58;;;;;;;20.96;34.05;102893.34;4985925;28;20092;-69
2022/02/11 11:53:26;;;;;;;8.32;2.70;;;;;;;20.94;34.52;102901.41;4976104;28;20037;-69
2022/02/11 11:55:52;;;;;;;12.55;2.70;;;;;;;20.89;34.55;102895.72;4987808;28;20559;-69
2022/02/11 11:58:43;;;;;;;9.45;2.45;;;;;;;20.89;34.47;102903.66;4990841;28;20037;-69
2022/02/11 12:01:17;;;;;;;9.25;2.10;;;;;;;20.85;34.64;102907.56;4975247;28;20102;-69
2022/02/11 12:04:37;;;;;;;11.00;2.75;;;;;;;20.89;34.46;102918.69;4985555;28;20039;-69
2022/02/11 12:07:06;;;;;;;7.18;2.33;;;;;;;20.84;34.57;102935.00;4956055;28;20499;-68
2022/02/11 12:09:32;;;;;;;7.93;2.40;;;;;;;20.86;34.27;102934.88;4987241;28;20060;-69
2022/02/11 12:12:06;;;;;;;6.40;2.05;;;;;;;20.85;34.52;102943.78;4981153;28;20049;-69
2022/02/11 12:14:34;;;;;;;9.73;2.97;;;;;;;20.77;34.52;102942.63;4985711;28;20076;-69
2022/02/11 12:17:01;;;;;;;9.73;1.98;;;;;;;20.77;34.66;102939.16;4971487;28;20152;-69
2022/02/11 12:19:28;;;;;;;11.27;2.33;;;;;;;20.82;34.43;102947.50;4984642;28;20103;-69
2022/02/11 12:21:53;;;;;;;10.32;2.33;;;;;;;20.78;34.53;102936.38;4985502;28;22044;-69
2022/02/11 12:27:20;;;;;;;11.57;2.60;;;;;;;20.67;34.73;102948.88;4989770;28;20749;-69
2022/02/11 12:30:09;;;;;;;9.60;2.60;;;;;;;20.74;34.61;102956.16;4979374;28;20053;-68
2022/02/11 12:32:45;;;;;;;8.10;1.93;;;;;;;20.59;35.09;102954.84;4969616;28;20048;-69
2022/02/11 12:35:23;;;;;;;9.63;2.88;;;;;;;20.61;35.20;102955.53;4980066;28;20033;-69
2022/02/11 12:37:49;;;;;;;11.25;2.33;;;;;;;20.53;35.56;102960.66;4975821;28;20753;-69
2022/02/11 12:40:16;;;;;;;7.22;2.67;;;;;;;20.66;35.69;102960.44;4967130;28;20037;-69
2022/02/11 12:42:44;;;;;;;9.80;2.42;;;;;;;20.72;35.41;102962.56;4978379;28;21809;-69
2022/02/11 12:45:19;;;;;;;6.38;2.10;;;;;;;20.66;35.72;102963.09;4993718;28;20109;-70
2022/02/11 12:47:45;;;;;;;6.93;2.08;;;;;;;20.71;35.61;102966.19;4978191;28;20289;-70
2022/02/11 12:50:12;;;;;;;9.93;2.70;;;;;;;20.79;35.37;102971.63;4981122;28;20549;-70
2022/02/11 12:52:38;;;;;;;8.48;2.60;;;;;;;20.78;35.50;102986.66;4997200;28;20562;-68
2022/02/11 12:55:11;;;;;;;5.15;2.30;;;;;;;20.91;35.13;102988.25;4966826;28;20041;-69
2022/02/11 12:57:42;;;;;;;9.73;2.42;;;;;;;20.96;35.24;102993.97;4990673;28;20427;-68
2022/02/11 13:00:14;;;;;;;11.70;3.10;;;;;;;21.17;32.30;102999.19;4974540;28;20742;-68
2022/02/11 13:02:40;;;;;;;8.80;2.20;;;;;;;21.13;31.87;102996.81;4983018;28;20742;-75
2022/02/11 13:05:15;;;;;;;7.40;2.22;;;;;;;21.21;32.13;103003.25;4962616;28;20050;-69
2022/02/11 13:07:44;;;;;;;8.60;2.83;;;;;;;20.86;33.58;103001.06;4977781;28;20111;-68
2022/02/11 13:10:11;;;;;;;10.27;2.70;;;;;;;20.85;33.91;103005.53;4979198;28;20036;-69
2022/02/11 13:12:42;;;;;;;7.15;2.15;;;;;;;20.89;34.01;103000.78;4968933;28;20033;-69
2022/02/11 13:15:10;;;;;;;5.93;2.38;;;;;;;21.03;33.72;103008.38;4975214;28;20110;-71
2022/02/11 13:17:36;;;;;;;6.38;1.92;;;;;;;21.24;33.35;103010.94;4986063;28;21707;-81
2022/02/11 13:20:10;;;;;;;7.35;1.98;;;;;;;21.44;33.22;103014.47;4988042;28;20041;-71
2022/02/11 13:22:37;;;;;;;7.15;2.38;;;;;;;21.44;33.51;103009.19;4981665;28;20033;-69
2022/02/11 13:25:04;;;;;;;11.10;2.55;;;;;;;21.50;33.43;103011.28;5013461;28;20212;-72
2022/02/11 13:27:50;;;;;;;8.73;2.03;;;;;;;21.55;33.50;103009.91;4964047;28;20060;-70
2022/02/11 13:30:24;;;;;;;7.47;2.03;;;;;;;21.61;33.52;103008.50;5005059;28;20125;-70
2022/02/11 13:32:54;;;;;;;9.35;2.05;;;;;;;21.64;33.52;103016.16;5000181;28;20057;-69
2022/02/11 13:35:20;;;;;;;5.88;2.17;;;;;;;21.74;33.43;103018.84;4980731;28;20977;-63
2022/02/11 13:37:51;;;;;;;5.60;2.05;;;;;;;21.73;33.25;103022.47;4972347;28;20068;-68
2022/02/11 13:40:25;;;;;;;10.98;2.88;;;;;;;21.56;33.66;103022.19;4979566;28;20033;-66
2022/02/11 13:42:59;;;;;;;8.60;1.80;;;;;;;21.67;33.37;103031.78;4986404;28;20091;-67
2022/02/11 13:45:26;;;;;;;40.15;3.45;;;;;;;21.68;34.89;103029.00;4983151;28;20075;-65
2022/02/11 13:48:00;;;;;;;7.80;2.60;;;;;;;21.74;33.44;103038.25;4996262;28;20045;-66
2022/02/11 13:50:26;;;;;;;7.90;2.25;;;;;;;21.85;33.09;103043.38;4981679;28;20044;-66
2022/02/11 13:53:02;;;;;;;7.75;2.60;;;;;;;21.73;32.15;103046.34;4985065;28;20033;-66
2022/02/11 13:55:28;;;;;;;11.55;2.63;;;;;;;21.61;31.66;103056.22;4981244;28;20699;-66
2022/02/11 13:57:54;;;;;;;7.88;2.53;;;;;;;21.56;32.90;103067.25;4983297;28;20157;-66
2022/02/11 14:00:36;;;;;;;7.30;1.60;;;;;;;21.60;32.74;103058.03;4981095;28;20045;-66
2022/02/11 14:03:02;;;;;;;9.00;2.13;;;;;;;21.61;32.91;103070.31;4971712;28;20060;-66
2022/02/11 14:05:29;;;;;;;9.27;1.95;;;;;;;21.64;33.01;103063.91;5010100;28;20152;-65
2022/02/11 14:07:55;;;;;;;9.90;2.60;;;;;;;21.65;33.14;103068.22;4954607;28;20046;-67
2022/02/11 14:10:22;;;;;;;8.52;2.28;;;;;;;21.62;33.05;103082.59;5013892;28;20049;-66
2022/02/11 14:12:48;;;;;;;9.90;2.25;;;;;;;21.77;32.77;103075.09;4955132;28;20043;-67
2022/02/11 14:15:16;;;;;;;6.30;2.05;;;;;;;21.93;32.58;103090.44;5010158;28;20034;-67
2022/02/11 14:17:43;;;;;;;11.43;2.47;;;;;;;22.00;32.45;103089.75;4953321;28;20142;-65
2022/02/11 14:20:10;;;;;;;5.72;1.80;;;;;;;21.99;33.02;103096.03;5004237;28;20056;-64
2022/02/11 14:22:37;;;;;;;6.88;1.90;;;;;;;21.81;33.18;103091.56;4987070;28;20042;-67
2022/02/11 14:25:04;;;;;;;10.63;2.17;;;;;;;21.73;33.20;103104.69;4980676;28;20029;-66
2022/02/11 14:27:31;;;;;;;7.22;2.08;;;;;;;21.65;33.70;103108.84;4985518;28;20053;-67
2022/02/11 14:29:57;;;;;;;6.60;1.85;;;;;;;21.66;33.63;103107.84;4982761;28;20136;-68
2022/02/11 14:32:23;;;;;;;7.25;2.40;;;;;;;21.61;33.57;103111.91;4990121;28;20041;-67
2022/02/11 14:34:48;;;;;;;8.55;2.58;;;;;;;21.64;33.49;103108.97;4974253;28;20061;-68
2022/02/11 14:37:14;;;;;;;6.65;1.70;;;;;;;21.70;33.41;103116.38;5004016;28;20030;-69
2022/02/11 14:39:39;;;;;;;9.25;2.33;;;;;;;21.94;32.65;103114.19;4990380;28;20590;-68
2022/02/11 14:42:05;;;;;;;6.35;1.95;;;;;;;21.98;32.61;103115.56;4981566;28;20045;-74
2022/02/11 14:44:36;;;;;;;4.60;1.88;;;;;;;21.97;32.81;103119.22;4980184;28;20037;-68
2022/02/11 14:47:04;;;;;;;9.52;2.85;;;;;;;22.02;32.47;103121.44;4980607;28;20079;-63
2022/02/11 14:49:30;;;;;;;13.68;2.83;;;;;;;22.05;32.34;103129.16;4980521;28;20082;-72
2022/02/11 14:51:58;;;;;;;8.40;2.58;;;;;;;22.05;32.24;103128.31;4981795;28;20088;-72
2022/02/11 14:54:24;;;;;;;8.43;1.73;;;;;;;21.98;32.46;103122.69;4969672;28;20035;-73
2022/02/11 14:56:51;;;;;;;6.45;3.33;;;;;;;22.04;32.59;103130.09;5014141;28;20048;-74
2022/02/11 14:59:18;;;;;;;9.00;2.20;;;;;;;22.08;32.17;103146.59;4981140;28;20056;-67
2022/02/11 15:01:46;;;;;;;8.15;2.25;;;;;;;21.91;32.13;103146.31;5009784;28;20052;-64
2022/02/11 15:04:13;;;;;;;13.48;2.65;;;;;;;21.79;33.02;103146.56;4980465;28;20133;-64
2022/02/11 15:06:39;;;;;;;6.40;1.65;;;;;;;21.74;33.32;103154.94;5011642;28;20111;-65
2022/02/11 15:09:06;;;;;;;7.68;2.47;;;;;;;21.72;33.39;103151.53;4993681;28;20050;-65
2022/02/11 15:11:33;;;;;;;9.52;2.20;;;;;;;21.66;33.33;103147.63;5016078;28;21070;-64
2022/02/11 15:13:59;;;;;;;8.02;1.75;;;;;;;21.75;33.26;103153.94;4984703;28;20045;-69
2022/02/11 15:16:25;;;;;;;4.65;1.92;;;;;;;21.83;33.15;103162.03;5013149;28;20040;-70